createdAt,value
2019-01-16T00:01:20.515Z,-0.78
2019-01-16T00:03:52.532Z,-0.79
2019-01-16T00:06:23.880Z,-0.80
2019-01-16T00:09:10.304Z,-0.70
2019-01-16T00:11:57.919Z,-0.51
2019-01-16T00:14:39.006Z,-0.62
2019-01-16T00:17:25.570Z,-0.68
2019-01-16T00:20:00.185Z,-0.70
2019-01-16T00:22:46.554Z,-0.69
2019-01-16T00:25:17.987Z,-0.85
2019-01-16T00:27:49.304Z,-0.96
2019-01-16T00:30:23.484Z,-0.87
2019-01-16T00:33:09.806Z,-0.66
2019-01-16T00:35:57.561Z,-0.53
2019-01-16T00:38:45.067Z,-0.46
2019-01-16T00:41:16.440Z,-0.52
2019-01-16T00:44:03.966Z,-0.51
2019-01-16T00:46:41.716Z,-0.53
2019-01-16T00:49:16.439Z,-0.74
2019-01-16T00:51:59.824Z,-0.62
2019-01-16T00:54:47.578Z,-0.73
2019-01-16T00:57:18.986Z,-0.87
2019-01-16T00:59:50.331Z,-0.62
2019-01-16T01:02:37.065Z,-0.61
2019-01-16T01:05:25.603Z,-0.41
2019-01-16T01:08:00.137Z,-0.52
2019-01-16T01:10:34.287Z,-0.53
2019-01-16T01:13:08.672Z,-0.64
2019-01-16T01:15:52.347Z,-0.64
2019-01-16T01:18:40.647Z,-0.46
2019-01-16T01:21:08.583Z,-0.42
2019-01-16T01:23:42.780Z,-0.50
2019-01-16T01:26:30.522Z,-0.36
2019-01-16T01:29:01.926Z,-0.33
2019-01-16T01:31:33.287Z,-0.47
2019-01-16T01:34:04.619Z,-0.46
2019-01-16T01:36:51.155Z,-0.49
2019-01-16T01:39:38.754Z,-0.48
2019-01-16T01:42:26.583Z,-0.57
2019-01-16T01:45:14.071Z,-0.41
2019-01-16T01:47:47.927Z,-0.41
2019-01-16T01:50:27.048Z,-0.33
2019-01-16T01:52:58.427Z,-0.25
2019-01-16T01:55:35.550Z,-0.26
2019-01-16T01:58:17.046Z,-0.06
2019-01-16T02:00:50.912Z,-0.09
2019-01-16T02:03:28.432Z,0.30
2019-01-16T02:06:02.560Z,0.33
2019-01-16T02:08:40.499Z,0.29
2019-01-16T02:11:14.740Z,0.52
2019-01-16T02:13:46.672Z,0.47
2019-01-16T02:16:36.026Z,0.43
2019-01-16T02:19:07.910Z,0.34
2019-01-16T02:21:45.910Z,0.20
2019-01-16T02:24:19.071Z,0.25
2019-01-16T02:26:50.445Z,0.47
2019-01-16T02:29:27.633Z,0.47
2019-01-16T02:32:15.259Z,0.50
2019-01-16T02:34:55.246Z,0.39
2019-01-16T02:37:26.610Z,0.37
2019-01-16T02:40:13.832Z,0.35
2019-01-16T02:43:01.917Z,0.24
2019-01-16T02:45:33.837Z,0.12
2019-01-16T02:48:20.211Z,0.28
2019-01-16T02:51:00.531Z,0.25
2019-01-16T02:53:37.749Z,0.27
2019-01-16T02:56:09.113Z,0.14
2019-01-16T02:58:43.527Z,0.08
2019-01-16T03:01:17.947Z,0.10
2019-01-16T03:03:49.540Z,-0.04
2019-01-16T03:06:26.771Z,-0.07
2019-01-16T03:09:16.122Z,-0.08
2019-01-16T03:12:03.979Z,-0.07
2019-01-16T03:14:44.347Z,-0.08
2019-01-16T03:17:21.674Z,-0.02
2019-01-16T03:20:05.291Z,0.10
2019-01-16T03:22:39.415Z,0.08
2019-01-16T03:25:10.722Z,0.00
2019-01-16T03:27:57.658Z,0.00
2019-01-16T03:30:31.510Z,0.25
2019-01-16T03:33:09.538Z,0.25
2019-01-16T03:35:40.901Z,0.20
2019-01-16T03:38:24.540Z,0.20
2019-01-16T03:40:58.603Z,-0.06
2019-01-16T03:43:32.788Z,-0.06
2019-01-16T03:46:10.222Z,-0.02
2019-01-16T03:48:41.707Z,-0.02
2019-01-16T03:51:29.669Z,0.02
2019-01-16T03:54:02.744Z,0.02
2019-01-16T03:56:37.125Z,0.04
2019-01-16T03:59:14.557Z,0.10
2019-01-16T04:01:48.627Z,0.01
2019-01-16T04:04:23.031Z,0.07
2019-01-16T04:06:54.388Z,0.25
2019-01-16T04:09:43.991Z,0.25
2019-01-16T04:12:33.659Z,0.11
2019-01-16T04:15:05.860Z,0.11
2019-01-16T04:17:49.501Z,0.05
2019-01-16T04:20:27.132Z,0.02
2019-01-16T04:23:04.907Z,0.07
2019-01-16T04:25:39.222Z,0.09
2019-01-16T04:28:22.389Z,0.05
2019-01-16T04:31:09.892Z,-0.01
2019-01-16T04:33:41.269Z,-0.04
2019-01-16T04:36:27.840Z,-0.09
2019-01-16T04:38:59.116Z,-0.12
2019-01-16T04:41:40.406Z,-0.12
2019-01-16T04:44:14.584Z,-0.13
2019-01-16T04:47:04.360Z,-0.18
2019-01-16T04:49:48.172Z,-0.22
2019-01-16T04:52:35.731Z,-0.22
2019-01-16T04:55:24.207Z,-0.22
2019-01-16T04:57:58.321Z,-0.24
2019-01-16T05:00:29.658Z,-0.20
2019-01-16T05:03:10.825Z,-0.18
2019-01-16T05:06:00.482Z,-0.19
2019-01-16T05:08:34.808Z,-0.19
2019-01-16T05:11:09.166Z,-0.19
2019-01-16T05:13:49.486Z,-0.24
2019-01-16T05:16:20.849Z,-0.23
2019-01-16T05:18:57.914Z,-0.23
2019-01-16T05:21:41.564Z,-0.18
2019-01-16T05:24:12.924Z,-0.33
2019-01-16T05:26:47.006Z,-0.33
2019-01-16T05:29:26.272Z,-0.40
2019-01-16T05:32:00.625Z,-0.37
2019-01-16T05:34:32.053Z,-0.40
2019-01-16T05:37:09.210Z,-0.44
2019-01-16T05:39:43.319Z,-0.51
2019-01-16T05:42:14.677Z,-0.56
2019-01-16T05:44:49.224Z,-0.61
2019-01-16T05:47:23.403Z,-0.59
2019-01-16T05:50:08.248Z,-0.65
2019-01-16T05:52:50.044Z,-0.69
2019-01-16T05:55:37.967Z,-0.75
2019-01-16T05:58:15.554Z,-0.83
2019-01-16T06:00:47.001Z,-0.87
2019-01-16T06:03:35.002Z,-0.82
2019-01-16T06:06:06.413Z,-0.79
2019-01-16T06:08:37.763Z,-0.68
2019-01-16T06:11:26.494Z,-0.55
2019-01-16T06:14:02.821Z,-0.48
2019-01-16T06:16:34.244Z,-0.43
2019-01-16T06:19:21.974Z,-0.09
2019-01-16T06:21:56.407Z,0.14
2019-01-16T06:24:29.187Z,0.23
2019-01-16T06:27:00.601Z,0.26
2019-01-16T06:29:35.566Z,0.65
2019-01-16T06:32:06.906Z,1.18
2019-01-16T06:34:38.217Z,1.40
2019-01-16T06:37:28.662Z,1.32
2019-01-16T06:40:12.125Z,1.91
2019-01-16T06:43:00.084Z,1.91
2019-01-16T06:45:34.430Z,1.77
2019-01-16T06:48:13.115Z,1.34
2019-01-16T06:50:44.798Z,0.58
2019-01-16T06:53:28.380Z,0.58
2019-01-16T06:56:05.738Z,0.13
2019-01-16T06:58:37.078Z,0.01
2019-01-16T07:01:26.631Z,0.01
2019-01-16T07:04:28.048Z,-0.11
2019-01-16T07:07:00.537Z,-0.25
2019-01-16T07:09:56.968Z,-0.36
2019-01-16T07:12:31.046Z,-0.43
2019-01-16T07:15:20.765Z,-0.39
2019-01-16T07:18:09.962Z,-0.04
2019-01-16T07:21:00.996Z,0.19
2019-01-16T07:23:38.132Z,0.20
2019-01-16T07:26:27.785Z,0.23
2019-01-16T07:29:15.229Z,0.20
2019-01-16T07:32:21.725Z,0.19
2019-01-16T07:34:53.827Z,0.06
2019-01-16T07:37:36.055Z,-0.02
2019-01-16T07:40:27.685Z,0.02
2019-01-16T07:43:07.915Z,0.02
2019-01-16T07:45:42.945Z,0.09
2019-01-16T07:48:27.725Z,0.17
2019-01-16T07:51:19.999Z,0.26
2019-01-16T07:54:01.040Z,0.24
2019-01-16T07:56:40.326Z,0.28
2019-01-16T07:59:13.697Z,0.28
2019-01-16T08:01:59.762Z,0.44
2019-01-16T08:04:50.607Z,0.44
2019-01-16T08:07:51.352Z,0.50
2019-01-16T08:10:46.447Z,0.60
2019-01-16T08:13:22.098Z,0.61
2019-01-16T08:16:00.400Z,0.61
2019-01-16T08:18:43.048Z,0.74
2019-01-16T08:21:17.890Z,0.83
2019-01-16T08:23:52.462Z,0.83
2019-01-16T08:26:35.698Z,0.92
2019-01-16T08:29:22.971Z,1.05
2019-01-16T08:31:54.749Z,1.26
2019-01-16T08:34:29.236Z,1.25
2019-01-16T08:37:06.517Z,1.25
2019-01-16T08:39:40.585Z,1.45
2019-01-16T08:42:17.869Z,1.45
2019-01-16T08:44:49.272Z,1.54
2019-01-16T08:47:20.632Z,1.56
2019-01-16T08:49:51.962Z,1.74
2019-01-16T08:52:32.298Z,1.74
2019-01-16T08:55:06.855Z,1.85
2019-01-16T08:57:50.682Z,1.94
2019-01-16T09:00:28.017Z,1.94
2019-01-16T09:02:59.451Z,2.05
2019-01-16T09:05:30.818Z,2.14
2019-01-16T09:08:04.671Z,2.21
2019-01-16T09:10:36.001Z,2.25
2019-01-16T09:13:13.247Z,2.30
2019-01-16T09:15:54.045Z,2.27
2019-01-16T09:18:29.471Z,2.27
2019-01-16T09:21:09.581Z,2.32
2019-01-16T09:23:49.870Z,2.32
2019-01-16T09:26:36.108Z,2.37
2019-01-16T09:29:19.585Z,2.93
2019-01-16T09:31:56.709Z,2.94
2019-01-16T09:34:34.006Z,2.91
2019-01-16T09:37:14.443Z,2.90
2019-01-16T09:40:01.986Z,2.90
2019-01-16T09:42:33.529Z,3.00
2019-01-16T09:45:07.801Z,3.14
2019-01-16T09:47:51.321Z,3.17
2019-01-16T09:50:31.771Z,3.21
2019-01-16T09:53:05.828Z,3.16
2019-01-16T09:55:40.151Z,3.17
2019-01-16T09:58:11.479Z,3.16
2019-01-16T10:00:59.589Z,3.14
2019-01-16T10:03:33.756Z,3.19
2019-01-16T10:06:20.497Z,3.29
2019-01-16T10:08:51.847Z,3.31
2019-01-16T10:11:26.282Z,3.38
2019-01-16T10:13:57.685Z,3.34
2019-01-16T10:16:45.466Z,3.45
2019-01-16T10:19:17.066Z,3.43
2019-01-16T10:22:04.745Z,3.45
2019-01-16T10:24:42.348Z,3.41
2019-01-16T10:27:13.700Z,3.41
2019-01-16T10:29:45.070Z,3.46
2019-01-16T10:32:32.321Z,3.54
2019-01-16T10:35:21.786Z,3.63
2019-01-16T10:38:05.268Z,3.69
2019-01-16T10:40:54.850Z,3.73
2019-01-16T10:43:35.296Z,3.78
2019-01-16T10:46:24.990Z,3.79
2019-01-16T10:48:56.485Z,3.81
2019-01-16T10:51:30.601Z,3.82
2019-01-16T10:54:04.669Z,3.87
2019-01-16T10:56:36.045Z,3.89
2019-01-16T10:59:13.696Z,3.87
2019-01-16T11:01:50.946Z,3.86
2019-01-16T11:04:22.327Z,3.84
2019-01-16T11:06:59.498Z,3.83
2019-01-16T11:09:47.122Z,3.81
2019-01-16T11:12:18.609Z,3.78
2019-01-16T11:15:06.608Z,3.75
2019-01-16T11:17:38.020Z,3.72
2019-01-16T11:20:13.922Z,3.61
2019-01-16T11:23:01.580Z,3.53
2019-01-16T11:25:45.247Z,3.49
2019-01-16T11:28:19.680Z,3.43
2019-01-16T11:30:54.048Z,3.39
2019-01-16T11:33:25.568Z,3.36
2019-01-16T11:35:59.929Z,3.32
2019-01-16T11:38:34.198Z,3.34
2019-01-16T11:41:14.372Z,3.34
2019-01-16T11:44:01.658Z,3.30
2019-01-16T11:46:33.009Z,3.27
2019-01-16T11:49:04.344Z,3.27
2019-01-16T11:51:38.383Z,3.28
2019-01-16T11:54:09.752Z,3.31
2019-01-16T11:56:56.747Z,3.28
2019-01-16T11:59:34.214Z,3.27
2019-01-16T12:02:17.682Z,3.26
2019-01-16T12:04:49.128Z,3.24
2019-01-16T12:07:32.399Z,3.25
2019-01-16T12:10:04.209Z,3.23
2019-01-16T12:12:38.516Z,3.21
2019-01-16T12:15:27.940Z,3.18
2019-01-16T12:18:02.231Z,3.17
2019-01-16T12:20:36.947Z,3.15
2019-01-16T12:23:14.064Z,3.15
2019-01-16T12:26:08.135Z,3.15
2019-01-16T12:28:53.463Z,3.14
2019-01-16T12:31:44.298Z,3.14
2019-01-16T12:34:30.712Z,3.13
2019-01-16T12:37:04.983Z,3.15
2019-01-16T12:39:36.621Z,3.16
2019-01-16T12:42:20.486Z,3.18
2019-01-16T12:44:52.039Z,3.19
2019-01-16T12:47:29.675Z,3.21
2019-01-16T12:50:18.076Z,3.27
2019-01-16T12:53:02.025Z,3.30
2019-01-16T12:55:33.370Z,3.20
2019-01-16T12:58:21.127Z,3.15
2019-01-16T13:00:52.508Z,3.23
2019-01-16T13:03:33.227Z,3.20
2019-01-16T13:06:11.150Z,3.24
2019-01-16T13:08:51.688Z,3.35
2019-01-16T13:11:23.069Z,3.24
2019-01-16T13:13:58.170Z,3.20
2019-01-16T13:16:31.282Z,3.11
2019-01-16T13:19:19.014Z,3.07
2019-01-16T13:21:53.246Z,3.03
2019-01-16T13:24:36.536Z,2.99
2019-01-16T13:27:23.007Z,3.01
2019-01-16T13:30:00.001Z,3.06
2019-01-16T13:32:40.110Z,3.10
2019-01-16T13:35:14.034Z,3.12
2019-01-16T13:38:01.616Z,3.15
2019-01-16T13:40:38.779Z,3.17
2019-01-16T13:43:10.025Z,3.20
2019-01-16T13:45:57.563Z,3.22
2019-01-16T13:48:52.583Z,3.21
2019-01-16T13:51:38.723Z,3.21
2019-01-16T13:54:11.690Z,3.21
2019-01-16T13:57:00.440Z,3.23
2019-01-16T13:59:34.854Z,3.23
2019-01-16T14:02:08.971Z,3.28
2019-01-16T14:04:43.114Z,3.33
2019-01-16T14:07:20.476Z,3.34
2019-01-16T14:10:04.016Z,3.33
2019-01-16T14:12:50.425Z,3.32
2019-01-16T14:15:34.037Z,3.30
2019-01-16T14:18:05.426Z,3.30
2019-01-16T14:20:36.782Z,3.28
2019-01-16T14:23:34.965Z,3.28
2019-01-16T14:26:30.128Z,3.29
2019-01-16T14:29:23.121Z,3.27
2019-01-16T14:32:03.330Z,3.25
2019-01-16T14:34:46.988Z,3.27
2019-01-16T14:37:18.347Z,3.29
2019-01-16T14:39:52.480Z,3.30
2019-01-16T14:42:23.820Z,3.33
2019-01-16T14:45:04.336Z,3.34
2019-01-16T14:47:35.865Z,3.34
2019-01-16T14:50:13.450Z,3.32
2019-01-16T14:52:56.998Z,3.29
2019-01-16T14:55:45.179Z,3.27
2019-01-16T14:58:16.689Z,3.24
2019-01-16T15:00:54.566Z,3.21
2019-01-16T15:03:33.768Z,3.19
2019-01-16T15:06:17.556Z,3.16
2019-01-16T15:08:58.334Z,3.13
2019-01-16T15:11:36.143Z,3.09
2019-01-16T15:14:14.734Z,3.00
2019-01-16T15:16:49.062Z,2.97
2019-01-16T15:19:33.022Z,2.93
2019-01-16T15:22:11.915Z,2.88
2019-01-16T15:24:48.967Z,2.84
2019-01-16T15:27:24.865Z,2.80
2019-01-16T15:29:56.404Z,2.76
2019-01-16T15:32:40.116Z,2.73
2019-01-16T15:35:17.690Z,2.68
2019-01-16T15:38:05.360Z,2.64
2019-01-16T15:40:48.024Z,2.60
2019-01-16T15:43:28.406Z,2.58
2019-01-16T15:46:11.699Z,2.56
2019-01-16T15:48:57.989Z,2.57
2019-01-16T15:51:35.660Z,2.58
2019-01-16T15:54:07.296Z,2.63
2019-01-16T15:56:44.718Z,2.73
2019-01-16T15:59:24.936Z,2.70
2019-01-16T16:02:04.983Z,2.60
2019-01-16T16:04:36.323Z,2.51
2019-01-16T16:07:24.382Z,2.95
2019-01-16T16:10:00.386Z,3.41
2019-01-16T16:12:35.035Z,3.36
2019-01-16T16:15:11.730Z,3.38
2019-01-16T16:17:49.574Z,3.37
2019-01-16T16:20:37.609Z,3.45
2019-01-16T16:23:28.670Z,3.42
2019-01-16T16:26:02.683Z,3.27
2019-01-16T16:28:39.947Z,3.18
2019-01-16T16:31:12.367Z,3.22
2019-01-16T16:33:59.176Z,3.31
2019-01-16T16:36:42.781Z,3.15
2019-01-16T16:39:29.542Z,2.96
2019-01-16T16:42:01.127Z,2.80
2019-01-16T16:44:34.890Z,2.65
2019-01-16T16:47:12.224Z,2.57
2019-01-16T16:49:46.439Z,2.49
2019-01-16T16:52:26.047Z,2.42
2019-01-16T16:55:02.465Z,2.36
2019-01-16T16:57:52.274Z,2.31
2019-01-16T17:00:32.285Z,2.25
2019-01-16T17:03:06.382Z,2.19
2019-01-16T17:05:37.815Z,2.13
2019-01-16T17:08:09.148Z,2.11
2019-01-16T17:10:57.971Z,2.05
2019-01-16T17:13:47.525Z,2.01
2019-01-16T17:16:32.811Z,1.98
2019-01-16T17:19:13.286Z,1.95
2019-01-16T17:21:44.826Z,1.90
2019-01-16T17:24:22.057Z,1.85
2019-01-16T17:26:53.469Z,1.88
2019-01-16T17:29:33.809Z,1.88
2019-01-16T17:32:16.006Z,1.87
2019-01-16T17:35:04.055Z,1.83
2019-01-16T17:37:49.011Z,1.82
2019-01-16T17:40:26.324Z,1.93
2019-01-16T17:43:00.847Z,1.87
2019-01-16T17:45:35.531Z,1.81
2019-01-16T17:48:07.034Z,1.79
2019-01-16T17:50:38.394Z,1.76
2019-01-16T17:53:13.306Z,1.73
2019-01-16T17:55:57.039Z,1.73
2019-01-16T17:58:34.416Z,1.71
2019-01-16T18:01:11.394Z,1.71
2019-01-16T18:03:52.044Z,1.69
2019-01-16T18:06:41.882Z,1.66
2019-01-16T18:09:18.641Z,1.62
2019-01-16T18:12:14.512Z,1.60
2019-01-16T18:14:48.818Z,1.58
2019-01-16T18:17:28.279Z,1.56
2019-01-16T18:20:07.536Z,1.54
2019-01-16T18:22:45.435Z,1.56
2019-01-16T18:25:32.410Z,1.56
2019-01-16T18:28:18.971Z,1.51
2019-01-16T18:30:55.790Z,1.56
2019-01-16T18:33:27.143Z,1.65
2019-01-16T18:35:58.799Z,1.65
2019-01-16T18:38:52.430Z,1.60
2019-01-16T18:41:25.010Z,1.57
2019-01-16T18:43:59.337Z,1.52
2019-01-16T18:46:42.772Z,1.52
2019-01-16T18:49:17.811Z,1.30
2019-01-16T18:51:49.171Z,1.43
2019-01-16T18:54:23.317Z,1.39
2019-01-16T18:57:00.224Z,1.28
2019-01-16T18:59:46.657Z,1.20
2019-01-16T19:02:19.633Z,1.18
2019-01-16T19:05:09.520Z,1.18
2019-01-16T19:07:52.807Z,1.20
2019-01-16T19:10:24.240Z,1.18
2019-01-16T19:13:12.028Z,1.20
2019-01-16T19:15:46.361Z,1.20
2019-01-16T19:18:20.816Z,1.18
2019-01-16T19:21:02.482Z,1.17
2019-01-16T19:23:39.761Z,1.13
2019-01-16T19:26:12.580Z,1.12
2019-01-16T19:29:00.202Z,1.12
2019-01-16T19:31:49.988Z,1.12
2019-01-16T19:34:21.500Z,1.09
2019-01-16T19:37:02.543Z,1.06
2019-01-16T19:39:37.002Z,1.00
2019-01-16T19:42:08.461Z,0.98
2019-01-16T19:44:45.919Z,0.98
2019-01-16T19:47:28.199Z,0.98
2019-01-16T19:50:01.110Z,0.98
2019-01-16T19:52:35.744Z,0.99
2019-01-16T19:55:12.853Z,0.94
2019-01-16T19:57:59.070Z,0.90
2019-01-16T20:00:50.560Z,0.87
2019-01-16T20:03:38.666Z,0.87
2019-01-16T20:06:32.260Z,0.84
2019-01-16T20:09:18.333Z,0.83
2019-01-16T20:12:02.059Z,0.81
2019-01-16T20:14:33.680Z,0.77
2019-01-16T20:17:08.093Z,0.75
2019-01-16T20:19:52.409Z,0.80
2019-01-16T20:22:29.820Z,0.80
2019-01-16T20:25:17.519Z,0.80
2019-01-16T20:27:51.120Z,0.73
2019-01-16T20:30:22.621Z,0.72
2019-01-16T20:33:06.300Z,0.71
2019-01-16T20:35:41.969Z,0.64
2019-01-16T20:38:13.420Z,0.72
2019-01-16T20:40:51.324Z,0.68
2019-01-16T20:43:47.500Z,0.63
2019-01-16T20:49:57.253Z,0.54
2019-01-16T20:52:34.555Z,0.52
2019-01-16T20:55:24.378Z,0.45
2019-01-16T20:58:12.504Z,0.44
2019-01-16T21:00:47.228Z,0.41
2019-01-16T21:03:27.784Z,0.39
2019-01-16T21:06:01.900Z,0.37
2019-01-16T21:08:33.475Z,0.36
2019-01-16T21:11:21.162Z,0.36
2019-01-16T21:14:01.945Z,0.36
2019-01-16T21:16:42.109Z,0.35
2019-01-16T21:19:13.516Z,0.34
2019-01-16T21:21:48.059Z,0.32
2019-01-16T21:24:34.015Z,0.31
2019-01-16T21:27:08.442Z,0.26
2019-01-16T21:29:56.074Z,0.26
2019-01-16T21:32:27.905Z,0.19
2019-01-16T21:34:59.561Z,0.15
2019-01-16T21:37:35.155Z,0.15
2019-01-16T21:40:16.679Z,-0.51
2019-01-16T21:43:08.922Z,-0.51
2019-01-16T21:45:43.735Z,0.04
2019-01-16T21:48:31.293Z,0.04
2019-01-16T21:51:19.083Z,-0.07
2019-01-16T21:54:37.199Z,-0.13
2019-01-16T21:57:18.101Z,0.04
2019-01-16T21:59:56.060Z,-0.04
2019-01-16T22:02:27.402Z,-0.10
2019-01-16T22:04:58.739Z,-0.13
2019-01-16T22:07:33.372Z,-0.13
2019-01-16T22:10:21.421Z,-0.13
2019-01-16T22:13:09.896Z,-0.14
2019-01-16T22:15:56.603Z,-0.07
2019-01-16T22:18:32.440Z,-0.07
2019-01-16T22:21:20.164Z,-0.14
2019-01-16T22:24:04.580Z,-0.22
2019-01-16T22:26:43.500Z,-0.31
2019-01-16T22:29:45.590Z,-0.44
2019-01-16T22:32:25.920Z,-0.44
2019-01-16T22:35:28.723Z,-0.44
2019-01-16T22:38:02.049Z,-0.44
2019-01-16T22:40:50.061Z,-0.57
2019-01-16T22:43:40.003Z,-0.46
2019-01-16T22:46:13.037Z,-0.58
2019-01-16T22:48:55.860Z,-0.68
2019-01-16T22:51:45.606Z,-0.67
2019-01-16T22:54:35.184Z,-0.66
2019-01-16T22:57:09.521Z,-0.64
2019-01-16T22:59:57.539Z,-0.60
2019-01-16T23:02:47.423Z,-0.63
2019-01-16T23:05:27.955Z,-0.65
2019-01-16T23:08:18.859Z,-0.62
2019-01-16T23:10:50.247Z,-0.68
2019-01-16T23:13:30.846Z,-0.73
2019-01-16T23:16:03.039Z,-0.73
2019-01-16T23:18:52.179Z,-0.76
2019-01-16T23:21:40.161Z,-0.82
2019-01-16T23:24:16.776Z,-0.84
2019-01-16T23:26:50.682Z,-0.80
2019-01-16T23:29:22.086Z,-0.88
2019-01-16T23:32:02.186Z,-0.86
2019-01-16T23:34:33.581Z,-0.91
2019-01-16T23:37:15.072Z,-0.97
2019-01-16T23:39:55.215Z,-0.92
2019-01-16T23:42:45.216Z,-1.12
2019-01-16T23:45:32.706Z,-1.17
2019-01-16T23:48:06.853Z,-1.18
2019-01-16T23:51:04.644Z,-1.20
2019-01-16T23:53:41.419Z,-1.25
2019-01-16T23:56:31.924Z,-1.25
2019-01-16T23:59:06.499Z,-1.17
